Time;durP1;ratioP1;P1;durP2;ratioP2;P2;SDS_P1;SDS_P2;PMS_P1;PMS_P2;Temp;Humidity;BMP_temperature;BMP_pressure;BME280_temperature;BME280_humidity;BME280_pressure;Samples;Min_cycle;Max_cycle;Signal;HPM_P1;HPM_P2
2022/05/31 00:01:50;;;;;;;18.70;11.10;;;;;;;13.30;58.58;98924.80;105916;1276;97904;-69
2022/05/31 00:04:18;;;;;;;19.30;10.20;;;;;;;13.30;58.73;98925.36;106052;1276;98600;-71
2022/05/31 00:06:46;;;;;;;19.00;10.20;;;;;;;13.28;58.73;98920.48;105986;1276;109590;-69
2022/05/31 00:09:15;;;;;;;19.50;10.40;;;;;;;13.25;58.82;98918.80;105943;1276;97748;-69
2022/05/31 00:11:43;;;;;;;22.10;10.60;;;;;;;13.24;58.93;98919.73;105911;1276;107744;-70
2022/05/31 00:14:13;;;;;;;18.00;10.10;;;;;;;13.26;58.99;98922.63;105835;1277;97977;-68
2022/05/31 00:16:42;;;;;;;20.10;11.40;;;;;;;13.24;58.89;98922.43;105962;1276;96573;-69
2022/05/31 00:19:09;;;;;;;23.00;10.50;;;;;;;13.19;58.85;98930.88;105898;1276;110468;-69
2022/05/31 00:21:42;;;;;;;21.00;11.00;;;;;;;13.12;58.91;98933.75;106044;1276;97867;-68
2022/05/31 00:24:15;;;;;;;21.80;11.50;;;;;;;13.06;59.15;98942.26;105919;1276;107867;-69
2022/05/31 00:26:44;;;;;;;19.10;10.80;;;;;;;13.06;59.33;98945.68;105919;1277;97856;-71
2022/05/31 00:29:12;;;;;;;20.30;11.60;;;;;;;13.07;59.34;98949.12;106025;1276;97990;-71
2022/05/31 00:31:44;;;;;;;19.80;11.30;;;;;;;13.08;59.34;98948.54;105960;1278;111108;-71
2022/05/31 00:34:14;;;;;;;19.40;11.20;;;;;;;13.08;59.52;98948.90;105867;1277;97972;-69
2022/05/31 00:36:45;;;;;;;20.30;11.70;;;;;;;13.08;59.48;98953.54;105952;1278;106986;-69
2022/05/31 00:39:13;;;;;;;21.10;12.10;;;;;;;13.07;59.61;98955.39;106007;1277;97976;-70
2022/05/31 00:41:41;;;;;;;20.20;11.50;;;;;;;13.05;59.59;98958.21;105959;1277;97966;-70
2022/05/31 00:44:15;;;;;;;21.10;11.80;;;;;;;13.04;59.66;98959.36;105926;1276;110090;-69
2022/05/31 00:47:00;;;;;;;21.30;12.00;;;;;;;13.03;59.72;98962.13;105941;1276;98018;-69
2022/05/31 00:49:28;;;;;;;19.20;10.40;;;;;;;13.02;59.83;98961.83;105945;1276;107796;-69
2022/05/31 00:51:59;;;;;;;21.50;11.40;;;;;;;13.01;59.89;98961.20;105888;1276;97900;-69
2022/05/31 00:54:31;;;;;;;20.70;10.90;;;;;;;13.01;59.94;98961.59;105952;1276;97893;-70
2022/05/31 00:57:01;;;;;;;20.90;12.10;;;;;;;13.00;59.99;98961.67;105946;1277;111336;-69
2022/05/31 00:59:45;;;;;;;24.30;12.00;;;;;;;12.98;59.98;98957.75;105915;1276;97896;-69
2022/05/31 01:02:17;;;;;;;23.20;12.00;;;;;;;12.97;60.03;98961.95;105895;1276;107642;-70
2022/05/31 01:04:58;;;;;;;21.40;12.60;;;;;;;12.95;60.09;98959.23;105894;1276;98105;-71
2022/05/31 01:07:27;;;;;;;23.00;12.80;;;;;;;12.93;60.09;98958.82;105935;1276;95338;-70
2022/05/31 01:09:54;;;;;;;21.40;13.20;;;;;;;12.91;60.11;98956.54;105913;1278;111407;-70
2022/05/31 01:12:24;;;;;;;21.10;13.20;;;;;;;12.87;60.11;98949.93;105957;1278;97971;-70
2022/05/31 01:14:53;;;;;;;21.40;12.60;;;;;;;12.76;59.65;98954.03;105994;1278;107815;-70
2022/05/31 01:17:23;;;;;;;22.00;12.90;;;;;;;12.59;59.64;98952.05;105974;1278;97914;-70
2022/05/31 01:19:55;;;;;;;20.20;11.80;;;;;;;12.43;59.66;98954.61;105899;1276;97879;-70
2022/05/31 01:22:51;;;;;;;19.70;11.10;;;;;;;12.32;59.78;98955.55;105925;1278;111425;-70
2022/05/31 01:25:32;;;;;;;19.90;11.50;;;;;;;12.25;60.05;98956.73;105999;1276;97990;-74
2022/05/31 01:28:38;;;;;;;19.70;11.70;;;;;;;12.22;60.19;98954.05;105917;1276;107798;-70
2022/05/31 01:31:29;;;;;;;20.90;11.00;;;;;;;12.14;59.97;98958.80;105906;1276;97889;-70
2022/05/31 01:34:18;;;;;;;20.00;10.50;;;;;;;12.03;60.07;98957.98;105943;1279;97958;-71
2022/05/31 01:36:53;;;;;;;21.60;12.30;;;;;;;11.94;60.16;98962.84;106011;1278;111467;-71
2022/05/31 01:39:37;;;;;;;21.40;11.60;;;;;;;11.82;60.14;98960.91;105987;1279;98480;-71
2022/05/31 01:42:31;;;;;;;24.30;12.50;;;;;;;11.68;60.17;98966.64;105917;1276;107792;-70
2022/05/31 01:45:06;;;;;;;21.40;12.40;;;;;;;11.56;60.75;98973.90;105924;1279;97996;-69
2022/05/31 01:47:35;;;;;;;22.60;13.40;;;;;;;11.58;60.91;98985.84;105924;1278;95180;-70
2022/05/31 01:50:08;;;;;;;22.00;12.40;;;;;;;11.62;61.15;98991.02;105924;1276;111385;-70
2022/05/31 01:52:36;;;;;;;20.50;12.50;;;;;;;11.66;61.17;98996.06;105954;1279;98597;-69
2022/05/31 01:55:05;;;;;;;22.10;12.80;;;;;;;11.70;61.19;98995.40;105892;1276;107665;-70
2022/05/31 01:57:35;;;;;;;22.60;12.00;;;;;;;11.73;61.29;98998.02;105917;1278;97856;-70
2022/05/31 02:00:10;;;;;;;22.10;12.60;;;;;;;11.76;61.36;98998.64;105911;1276;97967;-72
2022/05/31 02:02:37;;;;;;;21.90;12.40;;;;;;;11.78;61.37;99003.52;105930;1276;111298;-71
2022/05/31 02:05:06;;;;;;;22.30;13.40;;;;;;;11.80;61.49;99004.63;105973;1278;97884;-70
2022/05/31 02:07:33;;;;;;;23.10;12.90;;;;;;;11.81;61.43;99001.89;105924;1276;107495;-70
2022/05/31 02:10:02;;;;;;;21.60;12.70;;;;;;;11.82;61.37;99002.71;105930;1279;97855;-71
2022/05/31 02:12:36;;;;;;;21.70;13.50;;;;;;;11.82;61.55;99004.81;105984;1279;98016;-71
2022/05/31 02:15:05;;;;;;;23.80;12.90;;;;;;;11.81;61.74;99002.98;105905;1279;111463;-71
2022/05/31 02:17:33;;;;;;;21.20;13.10;;;;;;;11.80;61.61;99008.14;105934;1279;97981;-70
2022/05/31 02:20:00;;;;;;;22.30;14.20;;;;;;;11.79;61.68;99006.63;105911;1276;107679;-70
2022/05/31 02:22:30;;;;;;;24.20;14.30;;;;;;;11.77;61.71;99005.15;105924;1274;98497;-70
2022/05/31 02:24:58;;;;;;;22.20;12.60;;;;;;;11.77;61.79;99006.43;105972;1278;96254;-71
2022/05/31 02:27:26;;;;;;;23.90;12.10;;;;;;;11.76;61.79;99007.96;105948;1276;111863;-71
2022/05/31 02:29:54;;;;;;;20.70;12.50;;;;;;;11.73;61.74;99006.03;105905;1277;97890;-70
2022/05/31 02:32:22;;;;;;;22.70;12.80;;;;;;;11.72;61.83;99009.32;105913;1278;107749;-69
2022/05/31 02:34:51;;;;;;;23.10;12.50;;;;;;;11.70;61.86;99010.36;105946;1278;97970;-72
2022/05/31 02:37:20;;;;;;;20.40;12.40;;;;;;;11.68;61.92;99017.62;106001;1276;97844;-70
2022/05/31 02:39:48;;;;;;;21.10;12.70;;;;;;;11.65;61.95;99018.91;106006;1274;111461;-69
2022/05/31 02:42:18;;;;;;;21.40;12.90;;;;;;;11.63;61.98;99019.55;105903;1278;96634;-70
2022/05/31 02:44:46;;;;;;;19.30;11.80;;;;;;;11.61;61.97;99022.91;105966;1276;107816;-70
2022/05/31 02:47:15;;;;;;;20.10;11.90;;;;;;;11.59;61.98;99028.78;105963;1279;95307;-70
2022/05/31 02:49:44;;;;;;;20.90;12.30;;;;;;;11.56;61.85;99030.39;105983;1278;97990;-70
2022/05/31 02:52:13;;;;;;;21.50;11.80;;;;;;;11.53;61.94;99033.16;106077;1276;111571;-71
2022/05/31 02:54:41;;;;;;;23.30;13.20;;;;;;;11.49;61.87;99036.48;105956;1276;97959;-71
2022/05/31 02:57:10;;;;;;;22.60;12.70;;;;;;;11.45;62.08;99041.89;105922;1276;107791;-70
2022/05/31 02:59:38;;;;;;;25.60;13.30;;;;;;;11.43;62.18;99042.73;106007;1276;97996;-71
2022/05/31 03:02:06;;;;;;;21.10;13.10;;;;;;;11.42;62.18;99045.35;105990;1276;97864;-70
2022/05/31 03:04:34;;;;;;;21.80;13.20;;;;;;;11.41;62.08;99043.61;105963;1276;111363;-70
2022/05/31 03:07:03;;;;;;;20.50;12.40;;;;;;;11.40;62.21;99047.96;105966;1278;98373;-70
2022/05/31 03:25:55;;;;;;;24.40;13.70;;;;;;;11.23;62.40;99053.15;105913;1276;97962;-71
2022/05/31 03:28:23;;;;;;;20.90;13.00;;;;;;;11.19;62.48;99049.36;106012;1276;107860;-69
2022/05/31 03:30:51;;;;;;;23.90;13.40;;;;;;;11.17;62.46;99049.71;105917;1278;98019;-70
2022/05/31 03:33:26;;;;;;;21.30;13.10;;;;;;;11.18;62.55;99051.23;105998;1279;97875;-69
2022/05/31 03:35:55;;;;;;;22.00;12.80;;;;;;;11.18;62.66;99047.31;106016;1276;111380;-68
2022/05/31 03:38:24;;;;;;;22.50;13.00;;;;;;;11.19;62.57;99048.70;105916;1277;97897;-72
2022/05/31 03:40:58;;;;;;;22.90;13.00;;;;;;;11.17;62.56;99050.73;105978;1278;107868;-69
2022/05/31 03:43:29;;;;;;;23.90;13.90;;;;;;;11.12;62.74;99048.11;105949;1278;95332;-67
2022/05/31 03:45:59;;;;;;;21.20;12.80;;;;;;;11.09;62.94;99051.39;105959;1279;97914;-68
2022/05/31 03:48:27;;;;;;;20.30;12.20;;;;;;;11.08;62.97;99054.67;105705;1276;308170;-68
2022/05/31 03:51:05;;;;;;;20.80;12.90;;;;;;;11.11;63.05;99061.02;105933;1279;98097;-66
2022/05/31 03:53:33;;;;;;;21.90;13.50;;;;;;;11.15;63.11;99060.15;105959;1277;106699;-69
2022/05/31 03:56:04;;;;;;;19.90;12.30;;;;;;;11.20;63.04;99067.77;106007;1278;97973;-69
2022/05/31 03:58:33;;;;;;;21.10;13.40;;;;;;;11.24;63.12;99072.27;106005;1277;97838;-69
2022/05/31 04:01:02;;;;;;;20.90;13.20;;;;;;;11.27;63.20;99073.45;105952;1276;111350;-68
2022/05/31 04:03:32;;;;;;;23.80;13.70;;;;;;;11.30;63.17;99070.73;105905;1278;97883;-68
2022/05/31 04:06:05;;;;;;;20.90;13.70;;;;;;;11.33;63.32;99073.36;105931;1278;108401;-68
2022/05/31 04:08:33;;;;;;;22.10;13.90;;;;;;;11.36;63.19;99068.36;105911;1278;97883;-69
2022/05/31 04:11:02;;;;;;;22.30;14.80;;;;;;;11.38;63.49;99072.43;105931;1279;97976;-69
2022/05/31 04:13:30;;;;;;;21.90;14.60;;;;;;;11.41;63.29;99072.38;105963;1278;111710;-68
2022/05/31 04:16:15;;;;;;;20.70;13.40;;;;;;;11.44;63.47;99072.19;105939;1279;97892;-68
2022/05/31 04:18:49;;;;;;;21.60;13.90;;;;;;;11.46;63.52;99065.95;105910;1278;108431;-68
2022/05/31 04:21:17;;;;;;;22.50;13.90;;;;;;;11.50;63.52;99068.73;105887;1278;97928;-70
2022/05/31 04:23:59;;;;;;;22.60;12.40;;;;;;;11.53;63.59;99064.61;106009;1276;98027;-69
2022/05/31 04:26:32;;;;;;;22.40;13.50;;;;;;;11.56;63.64;99069.16;105939;1278;112079;-69
2022/05/31 04:29:02;;;;;;;22.40;14.40;;;;;;;11.59;63.63;99065.71;105939;1278;97882;-69
2022/05/31 04:31:29;;;;;;;25.10;13.20;;;;;;;11.62;63.77;99069.39;105975;1276;107537;-68
2022/05/31 04:33:58;;;;;;;21.80;13.90;;;;;;;11.66;63.84;99073.39;105966;1279;97994;-68
2022/05/31 04:36:26;;;;;;;23.80;13.40;;;;;;;11.69;63.84;99076.98;105912;1279;97893;-69
2022/05/31 04:38:55;;;;;;;21.30;13.50;;;;;;;11.73;63.79;99075.30;105941;1278;112528;-69
2022/05/31 04:41:27;;;;;;;21.40;13.70;;;;;;;11.77;63.95;99077.49;105945;1279;97921;-68
2022/05/31 04:43:57;;;;;;;20.90;13.20;;;;;;;11.81;64.04;99075.60;105993;1278;108411;-68
2022/05/31 04:46:28;;;;;;;21.90;14.00;;;;;;;11.85;64.14;99076.48;105916;1278;97902;-68
2022/05/31 04:48:59;;;;;;;22.90;13.40;;;;;;;11.89;64.14;99074.04;105935;1279;97961;-65
2022/05/31 04:51:27;;;;;;;22.80;14.30;;;;;;;11.94;64.19;99075.81;105892;1278;112095;-68
2022/05/31 04:53:55;;;;;;;22.10;14.40;;;;;;;11.98;64.27;99077.09;105911;1279;97898;-69
2022/05/31 04:56:23;;;;;;;26.60;15.00;;;;;;;12.03;64.19;99080.64;105902;1278;108366;-69
2022/05/31 04:58:52;;;;;;;22.00;13.00;;;;;;;12.08;64.27;99086.29;105994;1279;95338;-67
2022/05/31 05:01:22;;;;;;;20.60;12.40;;;;;;;12.14;64.25;99083.88;106054;1276;98063;-70
2022/05/31 05:03:51;;;;;;;21.50;13.00;;;;;;;12.21;64.28;99089.23;106043;1276;111482;-70
2022/05/31 05:06:21;;;;;;;21.30;12.10;;;;;;;12.26;64.20;99090.02;105992;1276;98595;-69
2022/05/31 05:08:49;;;;;;;22.50;13.60;;;;;;;12.32;64.27;99090.60;106043;1278;108409;-70
2022/05/31 05:11:21;;;;;;;20.40;12.30;;;;;;;12.38;64.34;99092.31;105903;1279;97979;-69
2022/05/31 05:13:50;;;;;;;21.40;11.70;;;;;;;12.44;64.42;99089.20;105982;1277;97872;-70
2022/05/31 05:16:19;;;;;;;19.40;11.10;;;;;;;12.49;64.33;99090.00;105961;1276;110345;-71
2022/05/31 05:18:49;;;;;;;18.80;10.70;;;;;;;12.56;64.48;99096.08;105953;1276;97960;-71
2022/05/31 05:21:17;;;;;;;15.50;8.50;;;;;;;12.61;64.39;99098.14;105961;1276;107558;-70
2022/05/31 05:23:45;;;;;;;16.80;9.10;;;;;;;12.66;64.36;99097.39;105977;1276;97968;-68
2022/05/31 05:26:13;;;;;;;17.50;9.20;;;;;;;12.71;64.40;99100.00;106058;1276;97867;-70
2022/05/31 05:31:33;;;;;;;17.90;9.50;;;;;;;12.80;64.49;99102.80;105917;1277;97729;-70
2022/05/31 05:34:03;;;;;;;17.50;8.80;;;;;;;12.87;64.44;99106.56;105919;1278;108869;-70
2022/05/31 05:36:32;;;;;;;16.90;9.00;;;;;;;12.92;64.44;99103.10;105893;1278;98009;-68
2022/05/31 05:39:00;;;;;;;18.00;8.80;;;;;;;12.99;64.35;99107.73;105905;1280;97959;-69
2022/05/31 05:41:31;;;;;;;17.20;9.00;;;;;;;13.06;64.43;99110.34;105927;1277;112088;-67
2022/05/31 05:43:59;;;;;;;19.70;9.70;;;;;;;13.14;64.39;99109.85;106010;1276;97890;-68
2022/05/31 05:46:28;;;;;;;17.50;9.20;;;;;;;13.22;64.36;99105.60;105956;1276;107725;-68
2022/05/31 05:48:57;;;;;;;15.90;9.40;;;;;;;13.31;64.43;99106.89;105962;1276;97964;-70
2022/05/31 05:51:28;;;;;;;17.00;8.30;;;;;;;13.37;64.30;99105.96;105933;1276;97941;-68
2022/05/31 05:53:56;;;;;;;17.80;8.20;;;;;;;13.43;64.38;99104.28;105949;1276;110818;-68
2022/05/31 05:56:26;;;;;;;17.20;7.60;;;;;;;13.50;64.17;99104.95;105963;1276;97880;-70
2022/05/31 05:58:54;;;;;;;13.50;7.30;;;;;;;13.57;64.24;99102.42;105957;1276;109197;-69
2022/05/31 06:01:38;;;;;;;16.40;8.10;;;;;;;13.65;64.15;99099.25;105881;1278;95397;-69
2022/05/31 06:04:45;;;;;;;18.00;7.90;;;;;;;13.73;64.08;99095.72;105931;1278;97889;-69
2022/05/31 06:07:53;;;;;;;16.30;8.00;;;;;;;13.83;64.19;99100.25;105934;1279;112421;-69
2022/05/31 06:10:26;;;;;;;17.80;8.70;;;;;;;13.96;64.24;99099.11;105806;1277;98246;-67
2022/05/31 06:13:01;;;;;;;16.90;9.00;;;;;;;14.06;64.11;99095.90;105944;1276;108196;-67
2022/05/31 06:15:33;;;;;;;15.20;7.90;;;;;;;14.19;64.18;99095.14;105995;1276;97891;-67
2022/05/31 06:18:11;;;;;;;16.50;7.70;;;;;;;14.33;64.13;99095.05;105896;1279;95380;-68
2022/05/31 06:20:40;;;;;;;12.70;7.30;;;;;;;14.46;64.01;99097.77;105985;1276;111508;-67
2022/05/31 06:23:08;;;;;;;17.10;7.40;;;;;;;14.63;64.10;99100.27;105933;1278;97601;-67
2022/05/31 06:25:36;;;;;;;16.40;6.90;;;;;;;14.81;64.02;99099.77;105965;1276;108135;-68
2022/05/31 06:28:05;;;;;;;13.70;6.10;;;;;;;15.00;63.89;99098.54;105820;1281;98664;-68
2022/05/31 06:30:34;;;;;;;10.50;4.80;;;;;;;15.18;63.65;99104.81;105907;1279;97836;-67
2022/05/31 06:33:01;;;;;;;8.50;4.40;;;;;;;15.34;63.27;99101.61;105896;1279;112000;-68
2022/05/31 06:35:30;;;;;;;10.20;4.60;;;;;;;15.49;63.35;99099.14;105915;1279;97961;-68
2022/05/31 06:37:58;;;;;;;8.70;5.00;;;;;;;15.66;63.47;99098.77;105900;1279;108243;-68
2022/05/31 06:40:27;;;;;;;10.20;4.90;;;;;;;15.86;63.60;99096.79;105882;1279;98005;-70
2022/05/31 06:42:55;;;;;;;11.70;5.30;;;;;;;16.01;63.26;99098.41;106060;1276;97855;-69
2022/05/31 06:45:24;;;;;;;11.80;5.40;;;;;;;16.16;63.25;99098.30;105971;1278;112331;-69
2022/05/31 06:47:52;;;;;;;11.30;5.30;;;;;;;16.38;63.21;99096.00;105946;1276;97897;-68
2022/05/31 06:50:20;;;;;;;13.40;5.10;;;;;;;16.99;62.60;99096.25;105953;1276;108207;-68
2022/05/31 06:58:22;;;;;;;9.40;4.70;;;;;;;21.70;59.23;99086.34;106031;1276;111680;-67
2022/05/31 07:00:50;;;;;;;11.00;4.50;;;;;;;23.09;59.49;99086.98;106013;1277;95274;-68
2022/05/31 07:03:18;;;;;;;13.00;4.60;;;;;;;24.56;59.74;99086.52;105965;1279;108846;-68
2022/05/31 07:05:47;;;;;;;7.50;3.80;;;;;;;25.71;59.11;99079.52;106000;1278;97993;-68
2022/05/31 07:08:15;;;;;;;7.50;3.90;;;;;;;26.85;58.58;99080.66;106063;1276;97949;-69
2022/05/31 07:10:43;;;;;;;9.10;3.80;;;;;;;28.06;58.32;99080.79;105962;1276;112444;-68
2022/05/31 07:13:12;;;;;;;6.80;3.90;;;;;;;29.36;58.25;99078.29;105935;1279;96295;-69
2022/05/31 07:15:39;;;;;;;9.00;3.50;;;;;;;30.64;58.20;99075.68;106004;1276;107402;-68
2022/05/31 07:18:28;;;;;;;10.30;3.80;;;;;;;31.85;57.18;99076.27;105977;1276;98034;-65
2022/05/31 07:20:56;;;;;;;7.40;3.60;;;;;;;32.69;57.13;99079.68;105931;1279;97940;-68
2022/05/31 07:23:25;;;;;;;9.10;4.00;;;;;;;33.69;56.53;99081.54;105962;1276;111695;-68
2022/05/31 07:25:54;;;;;;;6.90;4.30;;;;;;;34.49;55.76;99086.31;106025;1276;97832;-68
2022/05/31 07:28:42;;;;;;;8.50;3.60;;;;;;;35.36;54.95;99084.07;105973;1276;108448;-68
2022/05/31 07:31:10;;;;;;;6.70;3.40;;;;;;;36.00;54.75;99083.00;105986;1276;97995;-68
2022/05/31 07:33:38;;;;;;;8.10;3.80;;;;;;;36.55;53.83;99083.24;105999;1276;97875;-67
2022/05/31 07:36:08;;;;;;;7.20;3.70;;;;;;;36.98;53.40;99087.48;105998;1276;112066;-68
2022/05/31 07:38:36;;;;;;;8.20;3.60;;;;;;;37.60;52.54;99081.10;105960;1276;97809;-68
2022/05/31 07:41:05;;;;;;;6.70;3.60;;;;;;;38.16;51.80;99075.90;105960;1276;108358;-68
2022/05/31 07:43:33;;;;;;;8.60;3.40;;;;;;;38.55;50.83;99079.90;105948;1276;98446;-66
2022/05/31 07:46:05;;;;;;;6.50;3.60;;;;;;;38.85;50.18;99087.30;105955;1279;97868;-67
2022/05/31 07:48:34;;;;;;;9.70;4.00;;;;;;;39.23;49.44;99088.14;105950;1279;111428;-69
2022/05/31 07:51:04;;;;;;;8.70;3.80;;;;;;;39.70;48.74;99084.95;106008;1277;98488;-67
2022/05/31 07:53:33;;;;;;;10.80;3.40;;;;;;;40.04;47.76;99086.53;105977;1278;107747;-68
2022/05/31 07:56:07;;;;;;;6.60;3.20;;;;;;;40.21;46.98;99080.46;105954;1277;97959;-68
2022/05/31 07:58:42;;;;;;;7.10;3.50;;;;;;;40.16;46.09;99086.27;105916;1279;97875;-69
2022/05/31 08:01:16;;;;;;;6.00;3.40;;;;;;;39.95;45.16;99093.04;106017;1276;110735;-68
2022/05/31 08:03:45;;;;;;;6.50;3.30;;;;;;;40.04;44.65;99090.52;105942;1280;95738;-69
2022/05/31 08:06:16;;;;;;;6.40;3.40;;;;;;;40.25;44.17;99089.30;106009;1276;107816;-69
2022/05/31 08:08:44;;;;;;;;;;;;;;;40.40;43.44;99089.44;106017;1278;96060;-69
2022/05/31 08:11:25;;;;;;;5.50;2.80;;;;;;;40.53;42.69;99087.39;106000;1278;97912;-69
2022/05/31 08:13:55;;;;;;;4.50;2.90;;;;;;;40.59;42.18;99087.73;106077;1278;111199;-70
2022/05/31 08:16:26;;;;;;;5.40;3.30;;;;;;;39.84;42.29;99086.69;105977;1278;95699;-68
2022/05/31 08:18:55;;;;;;;6.80;3.10;;;;;;;38.79;41.48;99089.09;106053;1277;107919;-69
2022/05/31 08:21:27;;;;;;;5.80;3.10;;;;;;;37.76;40.26;99094.08;105992;1279;96416;-68
2022/05/31 08:23:59;;;;;;;8.80;3.30;;;;;;;35.82;38.52;99095.81;105977;1279;97857;-69
2022/05/31 08:26:27;;;;;;;6.50;2.90;;;;;;;34.68;38.35;99093.13;105975;1277;111353;-68
2022/05/31 08:28:55;;;;;;;5.40;2.60;;;;;;;34.98;38.31;99088.70;106020;1277;97877;-69
2022/05/31 08:31:33;;;;;;;5.50;2.70;;;;;;;35.31;38.18;99090.77;106030;1277;108854;-69
2022/05/31 08:34:04;;;;;;;6.40;3.30;;;;;;;35.45;37.70;99096.20;106088;1278;98677;-69
2022/05/31 08:36:32;;;;;;;4.00;2.90;;;;;;;35.38;37.42;99092.92;105993;1277;97890;-69
2022/05/31 08:39:01;;;;;;;3.80;2.70;;;;;;;35.05;37.25;99088.84;105967;1278;111381;-70
2022/05/31 08:41:31;;;;;;;7.50;3.20;;;;;;;34.96;36.94;99090.13;106016;1277;97796;-68
2022/05/31 08:44:06;;;;;;;6.60;3.20;;;;;;;34.88;36.43;99093.90;105805;1281;107678;-68
2022/05/31 08:46:38;;;;;;;7.90;3.20;;;;;;;35.21;36.06;99094.11;105951;1278;95383;-68
2022/05/31 08:49:13;;;;;;;6.20;3.00;;;;;;;35.69;35.80;99090.55;106000;1277;97906;-69
2022/05/31 08:52:05;;;;;;;7.40;3.10;;;;;;;35.92;35.62;99093.53;105898;1279;111057;-68
2022/05/31 08:57:32;;;;;;;9.50;3.20;;;;;;;34.84;33.53;99081.23;105857;1278;108703;-69
2022/05/31 09:00:07;;;;;;;4.40;2.90;;;;;;;33.59;33.70;99086.20;105910;1277;98037;-69
2022/05/31 09:02:47;;;;;;;4.60;2.80;;;;;;;32.99;33.84;99088.52;105926;1278;97943;-69
2022/05/31 09:05:27;;;;;;;6.30;3.10;;;;;;;32.45;33.30;99089.84;105874;1277;109931;-69
2022/05/31 09:08:19;;;;;;;5.10;2.90;;;;;;;32.33;33.13;99091.72;105931;1277;98454;-68
2022/05/31 09:10:51;;;;;;;5.60;2.80;;;;;;;32.54;33.48;99090.73;105934;1277;107982;-68
2022/05/31 09:14:05;;;;;;;4.70;2.60;;;;;;;32.90;33.49;99087.20;105862;1278;97828;-68
2022/05/31 09:16:57;;;;;;;4.50;2.50;;;;;;;33.30;33.34;99086.34;105719;1278;97996;-67
2022/05/31 09:20:11;;;;;;;5.50;2.80;;;;;;;33.70;33.26;99086.20;105895;1277;112145;-69
2022/05/31 09:22:43;;;;;;;4.70;2.60;;;;;;;34.18;33.09;99085.98;105217;1287;97999;-68
2022/05/31 09:25:13;;;;;;;7.80;2.80;;;;;;;34.21;32.35;99087.70;105168;1287;107860;-68
2022/05/31 09:27:48;;;;;;;4.30;2.50;;;;;;;33.94;32.23;99085.01;105656;1277;98557;-68
2022/05/31 09:30:40;;;;;;;7.30;2.90;;;;;;;33.47;31.62;99087.59;106803;1277;95724;-69
2022/05/31 09:33:26;;;;;;;;;;;;;;;32.20;31.31;99096.19;106044;1277;111572;-71
2022/05/31 09:36:26;;;;;;;8.00;3.10;;;;;;;31.25;31.48;99092.48;105979;1277;97990;-71
2022/05/31 09:39:21;;;;;;;7.50;2.60;;;;;;;31.15;31.62;99094.70;105809;1277;107744;-70
2022/05/31 09:42:19;;;;;;;4.60;2.40;;;;;;;31.59;31.79;99090.83;105947;1277;97855;-68
2022/05/31 09:45:10;;;;;;;6.10;2.80;;;;;;;30.75;30.76;99089.59;105999;1278;97826;-68
2022/05/31 09:47:38;;;;;;;3.90;2.80;;;;;;;29.73;31.20;99084.67;105826;1280;111410;-69
2022/05/31 09:50:08;;;;;;;7.40;2.90;;;;;;;29.29;31.35;99083.48;105784;1277;97124;-69
2022/05/31 09:52:43;;;;;;;9.40;3.50;;;;;;;28.98;31.39;99084.38;105714;1277;108311;-68
2022/05/31 09:58:12;;;;;;;9.30;2.90;;;;;;;28.19;31.09;99087.25;105861;1278;97962;-68
2022/05/31 10:00:58;;;;;;;5.10;2.60;;;;;;;28.08;31.06;99085.45;105871;1277;111994;-69
2022/05/31 10:03:44;;;;;;;6.20;2.90;;;;;;;28.16;31.02;99085.80;105905;1277;98511;-68
2022/05/31 10:06:20;;;;;;;5.40;3.10;;;;;;;27.98;30.98;99077.88;105984;1277;107507;-68
2022/05/31 10:08:51;;;;;;;4.40;2.80;;;;;;;27.72;31.20;99072.71;105895;1278;97923;-68
2022/05/31 10:11:44;;;;;;;4.90;2.80;;;;;;;27.55;31.15;99075.34;105899;1278;98491;-69
2022/05/31 10:14:30;;;;;;;6.70;2.40;;;;;;;27.33;31.02;99073.47;105901;1277;111576;-68
2022/05/31 10:17:27;;;;;;;4.00;2.40;;;;;;;27.06;31.11;99066.88;105971;1277;97753;-68
2022/05/31 10:20:24;;;;;;;3.80;2.50;;;;;;;26.78;31.11;99068.91;105995;1277;108437;-68
2022/05/31 10:22:55;;;;;;;3.70;2.60;;;;;;;26.54;31.41;99071.61;105943;1278;95332;-68
2022/05/31 10:25:29;;;;;;;4.10;2.70;;;;;;;26.36;30.92;99066.64;105962;1277;97969;-68
2022/05/31 10:28:01;;;;;;;5.00;3.00;;;;;;;26.14;31.11;99072.90;106040;1277;112033;-67
2022/05/31 10:30:31;;;;;;;8.80;2.70;;;;;;;25.96;31.00;99066.10;106009;1277;97755;-67
2022/05/31 10:33:08;;;;;;;4.00;2.90;;;;;;;25.77;31.17;99062.48;105803;1277;107755;-68
2022/05/31 10:35:43;;;;;;;8.10;3.00;;;;;;;25.62;31.09;99060.98;105929;1277;97979;-68
2022/05/31 10:38:17;;;;;;;4.40;2.60;;;;;;;25.59;31.20;99057.80;105858;1277;97857;-68
2022/05/31 10:40:50;;;;;;;5.00;2.70;;;;;;;25.60;31.20;99059.27;105918;1277;112027;-68
2022/05/31 10:43:25;;;;;;;;;;;;;;;25.50;30.88;99062.98;105963;1277;96700;-67
2022/05/31 10:45:55;;;;;;;16.30;7.40;;;;;;;25.12;30.90;99062.09;105850;1277;108519;-67
2022/05/31 10:48:25;;;;;;;7.80;3.60;;;;;;;24.97;31.21;99059.81;105949;1277;97981;-68
2022/05/31 10:51:11;;;;;;;8.80;3.20;;;;;;;24.94;31.30;99059.13;105905;1277;95195;-68
2022/05/31 10:53:42;;;;;;;5.60;2.90;;;;;;;24.90;31.28;99055.52;105907;1278;112039;-66
2022/05/31 10:56:20;;;;;;;6.20;2.90;;;;;;;24.92;31.41;99054.48;106052;1277;97917;-69
2022/05/31 10:58:59;;;;;;;7.40;2.90;;;;;;;25.03;31.70;99051.61;106018;1277;107851;-68
2022/05/31 11:02:12;;;;;;;4.20;2.50;;;;;;;25.15;31.49;99053.98;105963;1277;95396;-69
2022/05/31 11:04:57;;;;;;;3.30;2.40;;;;;;;25.10;31.49;99054.97;105968;1277;97907;-68
2022/05/31 11:07:36;;;;;;;6.40;3.10;;;;;;;25.20;31.81;99050.09;106033;1277;111343;-69
2022/05/31 11:11:29;;;;;;;3.00;2.20;;;;;;;25.30;31.59;99044.36;105996;1277;98925;-68
2022/05/31 11:13:55;;;;;;;6.80;2.50;;;;;;;25.16;31.63;99044.60;105702;1279;108105;-72
2022/05/31 11:16:55;;;;;;;4.30;2.60;;;;;;;24.95;31.49;99043.94;106016;1277;97954;-69
2022/05/31 11:19:41;;;;;;;6.00;2.60;;;;;;;24.79;31.68;99036.21;106047;1277;97905;-69
2022/05/31 11:22:13;;;;;;;3.20;2.40;;;;;;;24.81;31.66;99035.21;105883;1277;111414;-67
2022/05/31 11:25:10;;;;;;;7.90;2.70;;;;;;;24.69;31.51;99027.98;106039;1277;97956;-67
2022/05/31 11:27:44;;;;;;;5.60;2.60;;;;;;;24.38;31.15;99025.79;105909;1278;107827;-68
2022/05/31 11:30:48;;;;;;;8.20;2.60;;;;;;;24.13;31.57;99028.43;106021;1276;97995;-68
2022/05/31 11:33:35;;;;;;;;;;;;;;;23.94;31.34;99038.84;106029;1278;96576;-69
2022/05/31 11:36:17;;;;;;;7.10;2.50;;;;;;;23.85;31.71;99033.38;105952;1277;112037;-69
2022/05/31 11:38:57;;;;;;;4.80;2.60;;;;;;;23.71;31.72;99027.65;105943;1278;97859;-68
2022/05/31 11:42:00;;;;;;;3.80;2.60;;;;;;;23.71;31.91;99023.55;105993;1277;108099;-69
2022/05/31 11:45:01;;;;;;;9.20;3.10;;;;;;;23.86;32.05;99024.03;105909;1277;98081;-71
2022/05/31 11:47:38;;;;;;;5.20;2.90;;;;;;;23.97;32.09;99027.41;105991;1277;97871;-68
2022/05/31 11:50:22;;;;;;;4.60;2.70;;;;;;;24.03;31.74;99015.52;105976;1277;112162;-70
2022/05/31 11:53:03;;;;;;;3.40;2.40;;;;;;;23.98;31.98;99014.35;106021;1277;97893;-71
2022/05/31 11:55:43;;;;;;;4.30;2.80;;;;;;;23.86;31.85;99016.14;106008;1277;107826;-69
2022/05/31 11:58:27;;;;;;;5.00;2.50;;;;;;;23.84;32.11;99008.02;105914;1277;97981;-68
2022/05/31 12:01:01;;;;;;;5.30;2.80;;;;;;;23.96;32.32;99008.97;105886;1277;97883;-68
2022/05/31 12:03:38;;;;;;;10.50;4.40;;;;;;;24.08;32.38;99012.33;105989;1277;111572;-69
2022/05/31 12:06:15;;;;;;;5.60;2.80;;;;;;;24.15;32.38;99013.99;105999;1277;96502;-69
2022/05/31 12:08:55;;;;;;;7.10;3.20;;;;;;;23.94;31.83;99013.02;105948;1277;108372;-70
2022/05/31 12:11:32;;;;;;;5.70;2.70;;;;;;;23.58;31.81;99015.45;105910;1279;95309;-66
2022/05/31 12:14:03;;;;;;;10.40;4.40;;;;;;;23.49;32.24;99011.36;105995;1278;97958;-69
2022/05/31 12:16:33;;;;;;;8.70;3.10;;;;;;;23.56;32.60;99002.94;106033;1277;111385;-69
2022/05/31 12:19:36;;;;;;;6.50;3.00;;;;;;;23.61;32.68;98999.69;105932;1277;97875;-68